Upper Marlboro, Maryland
Current Conditions -  °F | °C
As of 4:58 AM on Saturday 22 Nov 2014 (Local Time) from KADW Reporting Station
Clear Clear  
Wind Chill: 19°   Ceiling: Unl
Heat Index: 19°   Visibility: 10mi
Dew Point: 13°   Wind: 3mph
Humidity: 79%   Direction: 200°SSW
Pressure: 30.53"   Gusts: NA
Location:  38.82°N, 76.76°W
Report Text: KADW 220958Z AUTO 20003KT 10SM CLR M07/M10 A3053 RMK AO2 SLP349 T10721103 $
Loading
Personal Weather Stations






























Interactive Weather Map New forecast layout! Learn more

10-Day Weather Forecast

Advertisements
Track Severe Weather on mobile